Time;durP1;ratioP1;P1;durP2;ratioP2;P2;SDS_P1;SDS_P2;PMS_P1;PMS_P2;Temp;Humidity;BMP_temperature;BMP_pressure;BME280_temperature;BME280_humidity;BME280_pressure;Samples;Min_cycle;Max_cycle;Signal;HPM_P1;HPM_P2
2023/08/27 00:00:34;;;;;;;8.57;3.03;;;;;;;24.76;49.39;101004.75;5053105;28;20036;-66
2023/08/27 00:03:00;;;;;;;5.57;3.08;;;;;;;24.39;49.82;100995.53;5070283;28;20059;-66
2023/08/27 00:05:25;;;;;;;3.92;2.65;;;;;;;23.92;50.86;101001.25;5070842;28;20036;-65
2023/08/27 00:07:50;;;;;;;5.15;2.92;;;;;;;24.30;50.32;100993.44;5071342;28;20110;-66
2023/08/27 00:10:16;;;;;;;5.28;3.17;;;;;;;24.05;50.49;100994.19;5069789;28;20028;-66
2023/08/27 00:12:41;;;;;;;4.60;2.97;;;;;;;23.81;50.90;100994.78;5053208;28;20737;-65
2023/08/27 00:15:07;;;;;;;4.15;3.05;;;;;;;23.62;52.14;100991.56;5071092;28;20383;-66
2023/08/27 00:17:33;;;;;;;4.05;3.10;;;;;;;23.69;52.12;100987.53;5051681;28;20023;-66
2023/08/27 00:19:58;;;;;;;4.25;2.80;;;;;;;23.83;50.99;100978.66;5052768;28;20028;-65
2023/08/27 00:22:24;;;;;;;4.43;2.75;;;;;;;23.94;50.70;100986.03;5070515;28;20028;-66
2023/08/27 00:24:49;;;;;;;3.63;2.60;;;;;;;23.86;51.14;100992.69;5051960;28;20021;-66
2023/08/27 00:27:15;;;;;;;7.13;2.88;;;;;;;23.79;50.87;100988.66;5052492;28;20127;-66
2023/08/27 00:29:40;;;;;;;7.80;2.38;;;;;;;23.97;51.11;100983.16;5052800;28;20494;-66
2023/08/27 00:32:06;;;;;;;2.38;2.03;;;;;;;23.79;51.12;100983.31;5051891;28;20453;-66
2023/08/27 00:34:33;;;;;;;3.80;2.33;;;;;;;23.90;50.69;100979.16;5069844;28;20032;-66
2023/08/27 00:37:01;;;;;;;4.63;2.75;;;;;;;23.38;51.58;100978.78;5051894;28;20024;-65
2023/08/27 00:39:30;;;;;;;5.63;2.63;;;;;;;24.19;50.78;100970.13;5052059;28;20119;-66
2023/08/27 00:41:56;;;;;;;4.03;2.67;;;;;;;23.76;51.30;100966.69;5070423;28;20459;-65
2023/08/27 00:44:21;;;;;;;4.88;3.10;;;;;;;24.01;50.78;100955.31;5051349;28;20027;-65
2023/08/27 00:46:50;;;;;;;3.75;2.97;;;;;;;23.73;52.53;100957.06;5052531;28;20021;-66
2023/08/27 00:49:16;;;;;;;6.07;2.60;;;;;;;23.72;52.53;100955.31;5052429;28;20021;-65
2023/08/27 00:51:46;;;;;;;4.82;3.17;;;;;;;23.43;53.20;100944.69;5051718;28;20035;-66
2023/08/27 00:54:12;;;;;;;4.32;3.55;;;;;;;23.38;53.72;100946.78;5051727;28;20071;-65
2023/08/27 00:56:41;;;;;;;8.32;4.10;;;;;;;24.15;51.99;100931.25;5052097;28;20064;-65
2023/08/27 00:59:07;;;;;;;5.57;3.05;;;;;;;23.59;53.30;100925.03;5065836;28;20082;-65
2023/08/27 01:01:33;;;;;;;8.63;3.65;;;;;;;23.35;53.49;100930.97;5088048;28;20425;-65
2023/08/27 01:03:58;;;;;;;6.68;3.35;;;;;;;23.58;53.80;100929.53;5088832;28;20026;-66
2023/08/27 01:06:24;;;;;;;5.57;3.47;;;;;;;23.74;53.31;100936.56;5087835;28;20020;-65
2023/08/27 01:09:12;;;;;;;7.75;3.88;;;;;;;23.30;54.73;100933.94;5090337;28;20024;-66
2023/08/27 01:12:09;;;;;;;8.60;3.67;;;;;;;23.92;52.82;100931.88;5088758;28;20388;-65
2023/08/27 01:14:36;;;;;;;8.55;4.32;;;;;;;23.17;55.19;100933.81;5088280;28;20035;-66
2023/08/27 01:17:07;;;;;;;7.30;4.03;;;;;;;22.76;56.20;100933.63;5088855;28;20024;-65
2023/08/27 01:19:33;;;;;;;4.85;3.72;;;;;;;23.07;56.44;100932.66;5087770;28;20031;-66
2023/08/27 01:21:58;;;;;;;8.98;4.30;;;;;;;22.72;57.05;100938.28;5088322;28;20020;-66
2023/08/27 01:24:24;;;;;;;7.43;4.10;;;;;;;22.79;56.69;100930.78;5088251;28;20020;-66
2023/08/27 01:27:02;;;;;;;12.30;4.45;;;;;;;22.59;57.99;100926.66;5087920;28;20016;-66
2023/08/27 01:29:56;;;;;;;7.85;4.10;;;;;;;23.13;55.93;100921.63;5088169;28;20027;-66
2023/08/27 01:32:31;;;;;;;5.68;3.70;;;;;;;23.35;55.32;100917.63;5089483;28;20500;-66
2023/08/27 01:34:59;;;;;;;6.75;3.95;;;;;;;22.80;56.63;100909.38;5087879;28;20387;-66
2023/08/27 01:37:25;;;;;;;4.93;3.70;;;;;;;23.09;56.25;100908.56;5087811;28;20480;-65
2023/08/27 01:40:05;;;;;;;11.38;4.07;;;;;;;22.81;56.35;100910.25;5088551;28;20057;-65
2023/08/27 01:42:30;;;;;;;5.97;4.05;;;;;;;23.16;55.50;100913.47;5088710;28;20619;-65
2023/08/27 01:44:56;;;;;;;4.88;3.65;;;;;;;22.84;56.61;100910.91;5089729;28;20558;-65
2023/08/27 01:47:21;;;;;;;6.00;3.58;;;;;;;23.37;55.16;100913.09;5087538;28;20036;-66
2023/08/27 01:49:49;;;;;;;6.50;3.67;;;;;;;23.57;54.27;100893.13;5088073;28;20051;-65
2023/08/27 01:52:14;;;;;;;7.05;3.85;;;;;;;23.84;53.39;100903.84;5089317;28;20031;-65
2023/08/27 01:54:40;;;;;;;10.70;4.75;;;;;;;23.41;54.10;100895.06;5088975;28;20031;-66
2023/08/27 01:57:05;;;;;;;6.72;3.95;;;;;;;23.38;54.93;100899.66;5088422;28;20050;-66
2023/08/27 01:59:31;;;;;;;6.45;3.70;;;;;;;23.25;54.44;100908.50;5087213;28;20140;-65
2023/08/27 02:01:57;;;;;;;8.70;3.97;;;;;;;22.43;58.34;100911.56;5087403;28;20036;-66
2023/08/27 02:04:22;;;;;;;4.82;3.08;;;;;;;22.14;59.80;100910.56;5089222;28;20052;-64
2023/08/27 02:06:48;;;;;;;10.57;4.07;;;;;;;22.85;56.48;100912.63;5088404;28;20108;-65
2023/08/27 02:09:13;;;;;;;6.00;3.53;;;;;;;22.44;57.95;100913.28;5086776;28;20387;-66
2023/08/27 02:11:39;;;;;;;5.07;3.38;;;;;;;23.11;56.42;100918.19;5091047;28;20032;-65
2023/08/27 02:14:04;;;;;;;3.75;3.00;;;;;;;23.14;55.18;100922.50;5092265;28;20024;-66
2023/08/27 02:16:30;;;;;;;6.05;3.30;;;;;;;23.55;54.74;100911.06;5091002;28;20034;-66
2023/08/27 02:18:55;;;;;;;6.55;3.30;;;;;;;23.12;55.86;100903.94;5092119;28;20024;-66
2023/08/27 02:21:20;;;;;;;4.47;3.00;;;;;;;23.42;55.11;100905.63;5091649;28;20114;-66
2023/08/27 02:23:46;;;;;;;6.32;3.10;;;;;;;22.92;56.59;100907.78;5091493;28;20020;-66
2023/08/27 02:26:11;;;;;;;3.70;2.80;;;;;;;22.89;56.95;100902.66;5093179;28;20379;-66
2023/08/27 02:28:37;;;;;;;4.50;3.15;;;;;;;23.19;56.17;100897.28;5091908;28;20035;-66
2023/08/27 02:31:02;;;;;;;5.32;2.92;;;;;;;23.30;56.13;100898.41;5091023;28;20062;-66
2023/08/27 02:33:28;;;;;;;4.15;2.97;;;;;;;22.96;57.16;100905.81;5091319;28;20031;-66
2023/08/27 02:35:53;;;;;;;6.45;3.13;;;;;;;22.11;59.56;100911.59;5092090;28;20028;-66
2023/08/27 02:38:19;;;;;;;8.68;3.22;;;;;;;23.24;56.78;100912.13;5091811;28;20032;-66
2023/08/27 02:40:44;;;;;;;6.88;2.22;;;;;;;22.34;59.80;100912.13;5091925;28;20036;-66
2023/08/27 02:43:11;;;;;;;4.80;2.70;;;;;;;22.77;58.43;100914.91;5093228;28;20024;-66
2023/08/27 02:45:36;;;;;;;3.58;2.63;;;;;;;22.64;58.68;100913.91;5091146;28;20058;-66
2023/08/27 02:48:02;;;;;;;3.47;2.75;;;;;;;23.72;56.39;100912.63;5093360;28;20048;-67
2023/08/27 02:50:27;;;;;;;9.05;3.20;;;;;;;23.28;56.60;100908.31;5091862;28;20468;-66
2023/08/27 02:52:52;;;;;;;7.50;2.95;;;;;;;22.91;58.36;100899.88;5089807;28;20016;-67
2023/08/27 02:55:18;;;;;;;6.97;3.15;;;;;;;23.52;56.20;100905.91;5086627;28;20480;-66
2023/08/27 02:57:43;;;;;;;5.22;3.17;;;;;;;22.64;58.04;100897.94;5073055;28;20020;-66
2023/08/27 03:00:09;;;;;;;6.50;2.97;;;;;;;22.62;59.55;100910.50;5091228;28;20058;-67
2023/08/27 03:02:34;;;;;;;5.80;2.55;;;;;;;23.17;56.72;100901.81;5091100;28;20038;-67
2023/08/27 03:05:03;;;;;;;5.95;2.85;;;;;;;23.00;57.79;100910.00;5090654;28;20047;-66
2023/08/27 03:07:28;;;;;;;4.75;2.97;;;;;;;22.72;59.10;100906.31;5090843;28;20472;-66
2023/08/27 03:09:53;;;;;;;5.25;2.38;;;;;;;;;;5092481;28;20106;-68
2023/08/27 03:12:19;;;;;;;11.25;3.67;;;;;;;23.03;57.93;100904.47;5090072;28;20052;-66
2023/08/27 03:14:44;;;;;;;6.45;2.42;;;;;;;22.20;60.69;100904.88;5092513;28;20525;-66
2023/08/27 03:17:10;;;;;;;7.57;2.80;;;;;;;22.52;59.45;100900.38;5091178;28;20038;-67
2023/08/27 03:19:36;;;;;;;5.70;3.30;;;;;;;22.30;60.84;100898.09;5090247;28;20510;-66
2023/08/27 03:22:02;;;;;;;4.43;2.95;;;;;;;23.12;58.03;100901.28;5091126;28;20024;-66
2023/08/27 03:24:27;;;;;;;5.07;2.85;;;;;;;21.80;62.58;100897.41;5090268;28;20020;-67
2023/08/27 03:26:52;;;;;;;7.75;3.17;;;;;;;22.59;60.96;100905.34;5091602;28;20024;-67
2023/08/27 03:29:18;;;;;;;5.20;2.30;;;;;;;22.65;59.85;100915.63;5090433;28;20032;-66
2023/08/27 03:31:43;;;;;;;4.88;2.40;;;;;;;23.28;57.30;100918.97;5090862;28;20024;-66
2023/08/27 03:34:09;;;;;;;5.45;2.85;;;;;;;22.66;60.21;100928.00;5091397;28;20565;-66
2023/08/27 03:36:34;;;;;;;4.15;1.60;;;;;;;21.94;58.05;100935.66;5090240;28;20027;-66
2023/08/27 03:39:00;;;;;;;0.30;0.30;;;;;;;21.38;54.52;100935.13;5092301;28;20028;-66
2023/08/27 03:41:26;;;;;;;1.75;0.50;;;;;;;21.42;52.11;100940.22;5089600;28;20031;-67
2023/08/27 03:43:52;;;;;;;0.55;0.20;;;;;;;21.20;51.75;100929.88;5090793;28;20024;-65
2023/08/27 03:46:17;;;;;;;1.17;0.40;;;;;;;21.98;50.48;100921.22;5090287;28;20063;-66
2023/08/27 03:48:42;;;;;;;0.73;0.30;;;;;;;21.33;52.42;100924.75;5089568;28;20035;-68
2023/08/27 03:51:08;;;;;;;0.32;0.32;;;;;;;21.92;51.17;100916.25;5090704;28;20031;-68
2023/08/27 03:53:33;;;;;;;0.52;0.35;;;;;;;22.23;50.48;100909.16;5090067;28;20020;-68
2023/08/27 03:56:05;;;;;;;1.02;0.40;;;;;;;22.31;50.26;100914.91;5089688;28;20039;-66
2023/08/27 03:58:31;;;;;;;2.97;0.40;;;;;;;22.92;49.27;100909.59;5088302;28;20117;-67
2023/08/27 04:00:57;;;;;;;1.50;0.40;;;;;;;23.05;50.08;100913.22;5070640;28;20032;-66
2023/08/27 04:03:22;;;;;;;1.50;0.70;;;;;;;23.40;50.12;100907.53;5053188;28;20027;-67
2023/08/27 04:05:49;;;;;;;0.93;0.30;;;;;;;23.69;49.46;100894.16;5053293;28;20028;-67
2023/08/27 04:08:17;;;;;;;3.75;0.45;;;;;;;23.76;48.81;100902.63;5051962;28;20552;-66
2023/08/27 04:10:52;;;;;;;0.95;0.30;;;;;;;23.93;48.90;100898.88;5071269;28;20108;-67
2023/08/27 04:13:19;;;;;;;0.47;0.35;;;;;;;23.86;48.75;100888.59;5052689;28;20024;-66
2023/08/27 04:16:01;;;;;;;0.47;0.30;;;;;;;23.99;48.49;100885.16;5052484;28;20111;-66
2023/08/27 04:18:27;;;;;;;1.30;0.50;;;;;;;24.27;48.04;100897.50;5070709;28;20036;-68
2023/08/27 04:20:53;;;;;;;2.58;0.38;;;;;;;24.25;47.70;100894.09;5053220;28;20364;-67
2023/08/27 04:23:18;;;;;;;3.28;0.40;;;;;;;24.13;47.78;100890.44;5070067;28;20016;-67
2023/08/27 04:25:45;;;;;;;1.02;0.50;;;;;;;24.23;48.43;100890.66;5053023;28;20515;-67
2023/08/27 04:28:11;;;;;;;1.17;0.38;;;;;;;23.74;48.88;100905.41;5052824;28;20123;-67
2023/08/27 04:30:37;;;;;;;1.23;0.40;;;;;;;24.24;47.86;100897.72;5052289;28;20025;-67
2023/08/27 04:33:05;;;;;;;2.50;0.30;;;;;;;23.94;48.59;100903.28;5052866;28;20451;-67
2023/08/27 04:35:30;;;;;;;0.30;0.30;;;;;;;23.87;49.52;100906.31;5051517;28;20163;-67
2023/08/27 04:37:56;;;;;;;4.22;0.60;;;;;;;23.94;50.14;100895.28;5051862;28;20060;-67
2023/08/27 04:40:21;;;;;;;5.13;0.70;;;;;;;24.14;50.32;100897.50;5070159;28;20429;-67
2023/08/27 04:42:47;;;;;;;2.25;0.40;;;;;;;24.12;50.04;100899.38;5070941;28;20028;-67
2023/08/27 04:45:12;;;;;;;2.00;0.77;;;;;;;24.25;49.38;100888.75;5069442;28;20484;-66
2023/08/27 04:47:38;;;;;;;0.88;0.30;;;;;;;24.18;48.90;100888.31;5052883;28;20115;-66
2023/08/27 04:50:04;;;;;;;0.40;0.38;;;;;;;24.20;48.44;100891.72;5069521;28;20024;-66
2023/08/27 04:52:30;;;;;;;2.63;0.50;;;;;;;24.02;49.15;100892.97;5069841;28;20460;-66
2023/08/27 04:54:55;;;;;;;0.40;0.40;;;;;;;24.25;48.18;100895.91;5052342;28;20462;-66
2023/08/27 04:57:21;;;;;;;1.23;0.50;;;;;;;24.04;48.72;100891.03;5069566;28;20398;-66
2023/08/27 04:59:46;;;;;;;0.95;0.40;;;;;;;23.78;49.50;100895.38;5073265;28;20044;-66
2023/08/27 05:02:12;;;;;;;4.75;0.60;;;;;;;23.78;49.06;100893.56;5089993;28;20055;-66
2023/08/27 05:04:37;;;;;;;0.30;0.30;;;;;;;23.74;48.70;100897.41;5089760;28;20024;-66
2023/08/27 05:07:02;;;;;;;0.93;0.40;;;;;;;23.63;48.94;100891.88;5089009;28;20074;-67
2023/08/27 05:09:28;;;;;;;1.85;0.38;;;;;;;23.84;48.40;100897.66;5088594;28;20032;-67
2023/08/27 05:11:53;;;;;;;3.05;0.40;;;;;;;23.41;49.69;100897.72;5089409;28;20099;-66
2023/08/27 05:14:19;;;;;;;1.08;0.60;;;;;;;23.14;50.08;100896.69;5088467;28;20035;-66
2023/08/27 05:16:44;;;;;;;1.55;0.60;;;;;;;23.12;50.84;100897.69;5088958;28;20361;-66
2023/08/27 05:19:09;;;;;;;0.70;0.38;;;;;;;23.10;51.05;100904.94;5088106;28;20031;-66
2023/08/27 05:21:35;;;;;;;0.25;0.25;;;;;;;23.12;50.79;100906.59;5088538;28;20118;-67
2023/08/27 05:24:01;;;;;;;1.13;0.47;;;;;;;23.17;50.31;100901.81;5090239;28;20142;-67
2023/08/27 05:26:26;;;;;;;1.38;0.60;;;;;;;23.12;50.58;100914.59;5087681;28;20020;-67
2023/08/27 05:28:52;;;;;;;2.33;0.50;;;;;;;23.27;50.62;100898.59;5088538;28;20020;-67
2023/08/27 05:31:17;;;;;;;0.50;0.50;;;;;;;23.40;50.06;100896.88;5088487;28;20085;-66
2023/08/27 05:33:43;;;;;;;0.50;0.50;;;;;;;23.29;50.59;100900.22;5087943;28;20028;-67
2023/08/27 05:36:09;;;;;;;1.20;0.57;;;;;;;23.21;51.26;100897.16;5088825;28;20085;-67
2023/08/27 05:38:34;;;;;;;1.98;0.50;;;;;;;23.21;50.10;100900.69;5087928;28;20491;-66
2023/08/27 05:41:00;;;;;;;0.40;0.40;;;;;;;23.24;50.25;100898.78;5088286;28;20016;-67
2023/08/27 05:43:26;;;;;;;3.25;0.80;;;;;;;23.23;49.53;100899.75;5088179;28;20016;-66
2023/08/27 05:45:51;;;;;;;3.95;0.77;;;;;;;23.20;50.28;100891.00;5088505;28;20024;-67
2023/08/27 05:48:16;;;;;;;1.92;0.95;;;;;;;23.53;49.29;100886.28;5086976;28;20471;-65
2023/08/27 05:50:44;;;;;;;0.80;0.80;;;;;;;23.30;50.79;100887.72;5089962;28;20024;-67
2023/08/27 05:53:10;;;;;;;5.25;1.10;;;;;;;23.39;50.53;100892.50;5089821;28;20500;-67
2023/08/27 05:55:36;;;;;;;3.08;1.30;;;;;;;23.43;51.22;100885.16;5087586;28;20115;-67
2023/08/27 05:58:03;;;;;;;3.13;1.17;;;;;;;23.79;50.00;100883.75;5088277;28;20446;-69
2023/08/27 06:00:28;;;;;;;1.35;1.25;;;;;;;24.03;49.81;100882.19;5087134;28;20063;-67
2023/08/27 06:02:54;;;;;;;4.00;1.80;;;;;;;23.33;51.68;100876.88;5088414;28;20024;-68
2023/08/27 06:05:19;;;;;;;3.65;1.52;;;;;;;23.51;51.57;100870.38;5088975;28;20028;-66
2023/08/27 06:07:45;;;;;;;2.00;1.67;;;;;;;23.54;51.72;100867.50;5088868;28;20036;-67
2023/08/27 06:10:11;;;;;;;5.45;2.60;;;;;;;23.99;51.59;100856.63;5089328;28;20547;-67
2023/08/27 06:12:36;;;;;;;5.25;2.88;;;;;;;23.18;53.75;100865.38;5087975;28;20039;-67
2023/08/27 06:15:02;;;;;;;4.78;3.10;;;;;;;23.25;55.10;100860.53;5087451;28;20013;-67
2023/08/27 06:17:30;;;;;;;9.95;3.85;;;;;;;23.68;54.22;100863.94;5087721;28;20472;-68
2023/08/27 06:19:55;;;;;;;8.23;3.72;;;;;;;23.39;55.79;100873.81;5089698;28;20028;-67
2023/08/27 06:22:21;;;;;;;4.93;3.65;;;;;;;22.96;59.55;100866.66;5087329;28;20065;-67
2023/08/27 06:24:46;;;;;;;9.65;3.63;;;;;;;22.07;63.71;100871.97;5088076;28;20020;-67
2023/08/27 06:27:14;;;;;;;8.45;3.05;;;;;;;22.61;63.05;100876.81;5087602;28;20063;-67
2023/08/27 06:29:42;;;;;;;6.57;4.32;;;;;;;22.96;62.01;100866.66;5088638;28;20043;-67
2023/08/27 06:32:07;;;;;;;7.28;3.22;;;;;;;23.74;58.33;100872.50;5089446;28;20100;-67
2023/08/27 06:34:33;;;;;;;6.35;3.85;;;;;;;23.59;59.08;100864.56;5087526;28;20054;-67
2023/08/27 06:36:58;;;;;;;7.05;4.10;;;;;;;22.76;62.73;100867.88;5088650;28;20028;-67
2023/08/27 06:39:24;;;;;;;7.43;3.50;;;;;;;23.52;60.54;100868.56;5087533;28;20104;-67
2023/08/27 06:41:49;;;;;;;7.93;4.35;;;;;;;23.52;60.33;100869.44;5089269;28;20069;-67
2023/08/27 06:44:15;;;;;;;7.28;4.35;;;;;;;24.15;58.80;100877.84;5087965;28;20016;-67
2023/08/27 06:46:40;;;;;;;12.20;4.40;;;;;;;23.09;62.52;100876.56;5088012;28;20553;-67
2023/08/27 06:49:06;;;;;;;8.60;4.63;;;;;;;23.43;59.42;100879.84;5087638;28;20024;-68
2023/08/27 06:51:31;;;;;;;9.82;5.13;;;;;;;22.84;60.85;100878.94;5086351;28;20472;-67
2023/08/27 06:53:57;;;;;;;9.50;5.32;;;;;;;23.47;60.27;100876.84;5087551;28;20111;-67
2023/08/27 06:56:22;;;;;;;9.75;4.85;;;;;;;23.23;59.38;100883.75;5087208;28;20032;-67
2023/08/27 06:58:48;;;;;;;10.98;6.07;;;;;;;22.17;62.57;100878.44;5088280;28;20522;-67
2023/08/27 07:01:14;;;;;;;7.38;4.68;;;;;;;21.96;61.47;100885.88;5092133;28;20054;-67
2023/08/27 07:03:39;;;;;;;9.57;5.47;;;;;;;22.18;60.48;100881.00;5092150;28;20012;-66
2023/08/27 07:06:05;;;;;;;7.38;5.47;;;;;;;22.65;59.71;100889.00;5091328;28;20027;-68
2023/08/27 07:08:31;;;;;;;15.35;5.40;;;;;;;22.95;59.12;100882.75;5090773;28;20886;-67
2023/08/27 07:10:56;;;;;;;8.57;4.88;;;;;;;23.99;56.72;100888.66;5090354;28;20461;-67
2023/08/27 07:13:21;;;;;;;6.18;4.43;;;;;;;24.52;54.05;100886.06;5092002;28;20487;-67
2023/08/27 07:15:47;;;;;;;8.55;4.95;;;;;;;23.00;58.89;100878.00;5091203;28;20057;-66
2023/08/27 07:18:15;;;;;;;6.43;4.63;;;;;;;23.46;56.05;100874.28;5089828;28;20024;-66
2023/08/27 07:20:40;;;;;;;7.43;4.72;;;;;;;23.85;54.48;100876.19;5090961;28;20024;-66
2023/08/27 07:23:06;;;;;;;10.15;5.75;;;;;;;23.45;55.70;100868.13;5092200;28;20020;-67
2023/08/27 07:25:33;;;;;;;10.70;5.57;;;;;;;24.09;53.60;100862.22;5089680;28;20073;-67
2023/08/27 07:27:59;;;;;;;6.70;4.15;;;;;;;24.39;51.03;100871.81;5090902;28;20031;-66
2023/08/27 07:30:24;;;;;;;4.93;2.72;;;;;;;24.44;50.51;100883.03;5090351;28;20042;-66
2023/08/27 07:32:51;;;;;;;2.63;2.20;;;;;;;24.00;49.52;100876.16;5089719;28;20016;-67
2023/08/27 07:35:17;;;;;;;3.17;2.20;;;;;;;24.94;47.55;100859.16;5089896;28;20173;-67
2023/08/27 07:37:43;;;;;;;3.83;2.28;;;;;;;25.65;46.01;100847.91;5090887;28;20065;-67
2023/08/27 07:40:11;;;;;;;2.38;1.85;;;;;;;26.31;45.07;100850.16;5089813;28;20114;-67
2023/08/27 07:42:37;;;;;;;2.33;1.48;;;;;;;25.30;46.45;100837.94;5090455;28;20396;-66
2023/08/27 07:45:03;;;;;;;2.65;1.20;;;;;;;24.80;47.03;100852.09;5090536;28;20021;-67
2023/08/27 07:47:29;;;;;;;5.43;0.93;;;;;;;24.90;45.61;100853.16;5089470;28;20034;-67
2023/08/27 07:49:54;;;;;;;0.80;0.80;;;;;;;24.41;45.89;100861.84;5090415;28;20227;-67
2023/08/27 07:52:19;;;;;;;3.97;1.13;;;;;;;25.27;44.74;100854.19;5089935;28;20372;-67
2023/08/27 07:54:45;;;;;;;2.35;1.20;;;;;;;24.46;45.78;100845.53;5091062;28;20379;-67
2023/08/27 07:57:11;;;;;;;1.05;0.88;;;;;;;24.47;45.82;100840.09;5090276;28;20026;-67
2023/08/27 07:59:37;;;;;;;1.10;0.85;;;;;;;25.36;44.62;100826.81;5090257;28;20044;-66
2023/08/27 08:02:03;;;;;;;1.05;1.05;;;;;;;25.51;43.23;100836.41;5089457;28;20028;-67
2023/08/27 08:04:28;;;;;;;2.22;0.73;;;;;;;25.23;43.83;100848.22;5090885;28;20027;-66
2023/08/27 08:06:53;;;;;;;1.33;1.10;;;;;;;24.13;45.83;100842.38;5091682;28;20545;-66
2023/08/27 08:09:19;;;;;;;1.10;1.00;;;;;;;24.04;44.91;100848.31;5088802;28;20024;-67
2023/08/27 08:11:44;;;;;;;2.67;0.90;;;;;;;24.54;45.58;100862.75;5090122;28;20461;-67
2023/08/27 08:14:10;;;;;;;1.50;0.80;;;;;;;24.93;45.21;100861.94;5089458;28;20077;-66
2023/08/27 08:16:36;;;;;;;1.27;0.90;;;;;;;23.54;48.72;100862.16;5090130;28;20119;-67
2023/08/27 08:19:01;;;;;;;1.17;1.00;;;;;;;22.95;50.44;100864.09;5091319;28;20104;-67
2023/08/27 08:21:27;;;;;;;1.73;0.93;;;;;;;22.02;51.94;100872.19;5088959;28;20064;-67
2023/08/27 08:23:52;;;;;;;0.77;0.55;;;;;;;22.13;50.76;100867.16;5091167;28;20023;-67
2023/08/27 08:26:18;;;;;;;0.95;0.68;;;;;;;22.61;49.84;100860.81;5089089;28;20028;-66
2023/08/27 08:28:43;;;;;;;1.77;0.80;;;;;;;22.76;49.76;100853.72;5090654;28;20028;-66
2023/08/27 08:31:09;;;;;;;0.98;0.60;;;;;;;24.40;46.60;100857.50;5089838;28;20016;-67
2023/08/27 08:33:35;;;;;;;0.57;0.57;;;;;;;23.57;48.75;100846.94;5090447;28;20020;-66
2023/08/27 08:36:00;;;;;;;2.33;0.45;;;;;;;22.86;49.22;100855.72;5088855;28;20016;-66
2023/08/27 08:38:25;;;;;;;0.40;0.32;;;;;;;23.02;47.74;100860.94;5088885;28;20472;-67
2023/08/27 08:40:59;;;;;;;2.22;0.65;;;;;;;22.13;49.50;100856.50;5090863;28;20064;-66
2023/08/27 08:43:45;;;;;;;1.45;0.30;;;;;;;22.43;49.30;100868.97;5088245;28;20020;-67
2023/08/27 08:46:13;;;;;;;1.70;0.38;;;;;;;23.70;46.52;100867.38;5089312;28;20035;-66
2023/08/27 08:48:42;;;;;;;1.33;0.38;;;;;;;22.62;45.53;100875.88;5089400;28;20019;-67
2023/08/27 08:51:09;;;;;;;0.30;0.30;;;;;;;23.57;45.29;100870.94;5089968;28;20031;-67
2023/08/27 08:53:49;;;;;;;0.35;0.15;;;;;;;23.13;45.32;100873.63;5088841;28;20482;-66
2023/08/27 08:56:37;;;;;;;1.63;0.47;;;;;;;23.32;44.99;100877.84;5089527;28;20062;-67
2023/08/27 08:59:04;;;;;;;0.68;0.60;;;;;;;23.92;44.51;100878.50;5088706;28;20044;-66
2023/08/27 09:01:30;;;;;;;0.73;0.30;;;;;;;23.84;43.18;100874.47;5088626;28;20024;-67
2023/08/27 09:03:56;;;;;;;1.10;0.30;;;;;;;25.40;41.33;100879.13;5088292;28;20487;-67
2023/08/27 09:06:23;;;;;;;0.20;0.20;;;;;;;26.07;39.57;100865.28;5088651;28;20051;-67
2023/08/27 09:08:50;;;;;;;0.43;0.40;;;;;;;26.57;38.37;100865.09;5088677;28;20073;-67
2023/08/27 09:11:17;;;;;;;0.98;0.22;;;;;;;27.39;36.88;100858.72;5087926;28;20055;-66
2023/08/27 09:13:43;;;;;;;0.32;0.20;;;;;;;26.13;39.54;100858.66;5090544;28;20107;-66
2023/08/27 09:16:09;;;;;;;0.40;0.13;;;;;;;25.21;39.43;100859.03;5090075;28;20104;-66
2023/08/27 09:18:35;;;;;;;0.70;0.30;;;;;;;24.72;40.66;100852.63;5088958;28;20103;-67
2023/08/27 09:21:01;;;;;;;0.38;0.20;;;;;;;25.96;40.13;100851.00;5088237;28;20115;-66
2023/08/27 09:23:28;;;;;;;0.22;0.15;;;;;;;24.83;40.21;100861.72;5088185;28;20031;-66
2023/08/27 09:25:58;;;;;;;0.63;0.15;;;;;;;25.09;40.63;100862.56;5087780;28;20055;-67
2023/08/27 09:28:24;;;;;;;0.52;0.40;;;;;;;25.12;40.32;100857.00;5089513;28;20058;-66
2023/08/27 09:30:50;;;;;;;0.57;0.45;;;;;;;25.45;39.92;100857.41;5088847;28;20104;-66
2023/08/27 09:33:16;;;;;;;1.25;0.30;;;;;;;24.44;39.92;100866.16;5087315;28;20028;-66
2023/08/27 09:35:41;;;;;;;1.40;0.28;;;;;;;23.66;41.71;100870.34;5089133;28;20383;-67
2023/08/27 09:38:15;;;;;;;0.20;0.20;;;;;;;24.59;39.97;100877.59;5088251;28;20023;-67
2023/08/27 09:40:40;;;;;;;0.30;0.25;;;;;;;23.40;41.35;100870.22;5087813;28;20030;-66
2023/08/27 09:43:11;;;;;;;0.17;0.17;;;;;;;23.86;40.83;100867.25;5089603;28;20032;-67
2023/08/27 09:45:38;;;;;;;0.40;0.40;;;;;;;24.68;38.96;100863.66;5087755;28;20089;-67
2023/08/27 09:48:04;;;;;;;1.95;0.30;;;;;;;24.36;39.71;100861.34;5089725;28;20034;-67
2023/08/27 09:50:31;;;;;;;0.20;0.20;;;;;;;22.98;42.34;100858.56;5087879;28;20024;-67
2023/08/27 09:53:12;;;;;;;0.50;0.22;;;;;;;23.10;42.27;100863.16;5089186;28;20028;-66
2023/08/27 09:55:38;;;;;;;0.57;0.45;;;;;;;23.51;43.05;100862.38;5088404;28;20062;-67
2023/08/27 09:58:05;;;;;;;0.40;0.40;;;;;;;23.36;43.41;100871.34;5089737;28;20067;-66
2023/08/27 10:00:33;;;;;;;1.08;0.40;;;;;;;22.45;45.27;100872.41;5086510;28;20556;-66
2023/08/27 10:02:59;;;;;;;0.40;0.40;;;;;;;22.64;46.57;100877.50;5088156;28;20036;-67
2023/08/27 10:05:27;;;;;;;0.65;0.50;;;;;;;22.69;46.76;100882.53;5087700;28;20530;-67
2023/08/27 10:07:59;;;;;;;0.57;0.45;;;;;;;22.55;46.91;100887.84;5087319;28;20027;-67
2023/08/27 10:10:25;;;;;;;0.65;0.50;;;;;;;22.86;46.63;100881.50;5087629;28;20059;-68
2023/08/27 10:12:52;;;;;;;1.42;0.50;;;;;;;22.15;48.76;100865.22;5089407;28;20080;-66
2023/08/27 10:15:18;;;;;;;0.90;0.60;;;;;;;23.16;47.99;100861.94;5086921;28;20533;-68
2023/08/27 10:17:45;;;;;;;1.38;0.70;;;;;;;23.26;47.38;100867.53;5087948;28;20024;-68
2023/08/27 10:20:11;;;;;;;0.60;0.60;;;;;;;23.37;48.03;100862.41;5088047;28;20070;-68
2023/08/27 10:22:37;;;;;;;0.82;0.60;;;;;;;23.23;48.41;100862.41;5088869;28;20039;-68
2023/08/27 10:25:06;;;;;;;1.85;0.65;;;;;;;23.40;48.22;100848.88;5089408;28;20027;-68
2023/08/27 10:27:33;;;;;;;0.65;0.65;;;;;;;23.39;49.23;100841.81;5087236;28;20032;-68
2023/08/27 10:29:59;;;;;;;0.57;0.57;;;;;;;22.61;50.24;100868.81;5087329;28;20063;-68
2023/08/27 10:32:24;;;;;;;0.50;0.50;;;;;;;23.51;48.79;100873.03;5087707;28;20027;-68
2023/08/27 10:34:50;;;;;;;0.93;0.77;;;;;;;22.76;50.75;100880.34;5091958;28;20028;-68
2023/08/27 10:37:17;;;;;;;1.98;0.98;;;;;;;23.31;49.34;100892.13;5091178;28;20062;-68
2023/08/27 10:39:43;;;;;;;0.57;0.57;;;;;;;22.34;51.55;100890.81;5091938;28;20028;-68
2023/08/27 10:42:28;;;;;;;1.05;0.60;;;;;;;23.07;49.81;100889.13;5091053;28;20032;-68
2023/08/27 10:45:14;;;;;;;0.95;0.70;;;;;;;23.50;47.34;100894.47;5091523;28;20024;-68
2023/08/27 10:47:40;;;;;;;0.40;0.40;;;;;;;23.88;48.66;100894.72;5091938;28;20024;-68
2023/08/27 10:50:06;;;;;;;1.00;0.45;;;;;;;24.59;46.60;100890.97;5092269;28;20036;-68
2023/08/27 10:52:49;;;;;;;0.52;0.52;;;;;;;24.93;46.41;100894.00;5091504;28;20031;-68
2023/08/27 10:55:14;;;;;;;;;;;;;;;25.76;45.98;100903.31;5091712;28;20024;-67
2023/08/27 10:57:40;;;;;;;0.40;0.40;;;;;;;25.22;46.51;100919.56;5090871;28;19934;-67
2023/08/27 11:00:10;;;;;;;2.63;0.50;;;;;;;25.42;44.51;100920.00;5091406;28;20106;-67
2023/08/27 11:03:13;;;;;;;1.00;0.50;;;;;;;24.82;44.67;100925.00;5091366;28;20032;-67
2023/08/27 11:05:38;;;;;;;0.20;0.20;;;;;;;22.95;47.14;100930.72;5089831;28;20044;-69
2023/08/27 11:08:16;;;;;;;0.65;0.30;;;;;;;23.80;44.54;100930.84;5091418;28;20656;-67
2023/08/27 11:10:41;;;;;;;0.35;0.30;;;;;;;22.90;45.97;100930.16;5090885;28;20422;-67
2023/08/27 11:13:41;;;;;;;1.52;0.57;;;;;;;23.62;45.59;100930.19;5091327;28;20023;-67
2023/08/27 11:16:15;;;;;;;0.77;0.30;;;;;;;23.17;45.16;100928.47;5092773;28;20060;-67
2023/08/27 11:18:46;;;;;;;1.67;1.05;;;;;;;23.38;45.95;100923.66;5090640;28;20030;-68
2023/08/27 11:21:24;;;;;;;1.73;0.50;;;;;;;24.50;45.18;100925.34;5090880;28;20028;-66
2023/08/27 11:24:11;;;;;;;1.33;0.93;;;;;;;25.18;44.69;100923.44;5092668;28;20020;-67
2023/08/27 11:26:38;;;;;;;0.60;0.40;;;;;;;25.17;44.62;100921.72;5092501;28;20032;-67